sensor_id;sensor_type;location;lat;lon;timestamp;temperature;humidity
8340;DHT22;4207;49.314;7.162;2023-06-22T02:21:14;19.60;99.90
8340;DHT22;4207;49.314;7.162;2023-06-22T02:23:42;19.80;99.90
8340;DHT22;4207;49.314;7.162;2023-06-22T02:26:10;19.70;99.90
8340;DHT22;4207;49.314;7.162;2023-06-22T02:31:06;19.40;99.90
8340;DHT22;4207;49.314;7.162;2023-06-22T02:33:36;19.50;99.90
8340;DHT22;4207;49.314;7.162;2023-06-22T02:36:04;19.40;99.90
8340;DHT22;4207;49.314;7.162;2023-06-22T02:38:35;19.40;99.90
8340;DHT22;4207;49.314;7.162;2023-06-22T02:41:03;19.30;99.90
8340;DHT22;4207;49.314;7.162;2023-06-22T02:51:00;19.20;99.90
8340;DHT22;4207;49.314;7.162;2023-06-22T02:53:28;19.10;99.90
8340;DHT22;4207;49.314;7.162;2023-06-22T02:55:56;19.00;99.90
8340;DHT22;4207;49.314;7.162;2023-06-22T02:58:24;18.90;99.90
8340;DHT22;4207;49.314;7.162;2023-06-22T03:00:52;18.90;99.90
8340;DHT22;4207;49.314;7.162;2023-06-22T03:03:21;18.90;99.90
8340;DHT22;4207;49.314;7.162;2023-06-22T03:05:49;18.90;99.90
8340;DHT22;4207;49.314;7.162;2023-06-22T03:08:22;18.80;99.90
8340;DHT22;4207;49.314;7.162;2023-06-22T03:13:21;18.80;99.90
8340;DHT22;4207;49.314;7.162;2023-06-22T03:18:19;18.60;99.90
8340;DHT22;4207;49.314;7.162;2023-06-22T03:20:49;18.60;99.90
8340;DHT22;4207;49.314;7.162;2023-06-22T03:23:17;18.60;99.90
8340;DHT22;4207;49.314;7.162;2023-06-22T03:25:47;18.60;99.90
8340;DHT22;4207;49.314;7.162;2023-06-22T03:43:09;18.60;99.90
8340;DHT22;4207;49.314;7.162;2023-06-22T03:45:37;18.80;99.90
8340;DHT22;4207;49.314;7.162;2023-06-22T03:48:07;18.60;99.90
8340;DHT22;4207;49.314;7.162;2023-06-22T03:50:35;18.50;99.90
8340;DHT22;4207;49.314;7.162;2023-06-22T03:53:03;18.60;99.90
8340;DHT22;4207;49.314;7.162;2023-06-22T03:55:31;18.70;99.90
8340;DHT22;4207;49.314;7.162;2023-06-22T03:57:59;18.60;99.90
8340;DHT22;4207;49.314;7.162;2023-06-22T04:00:33;18.60;99.90
8340;DHT22;4207;49.314;7.162;2023-06-22T04:05:30;18.80;99.90
8340;DHT22;4207;49.314;7.162;2023-06-22T04:07:58;18.60;99.90
8340;DHT22;4207;49.314;7.162;2023-06-22T04:10:26;18.50;99.90
8340;DHT22;4207;49.314;7.162;2023-06-22T04:12:55;18.80;99.90
8340;DHT22;4207;49.314;7.162;2023-06-22T04:15:23;18.60;99.90
8340;DHT22;4207;49.314;7.162;2023-06-22T04:17:54;18.70;99.90
8340;DHT22;4207;49.314;7.162;2023-06-22T04:20:22;18.70;99.90
8340;DHT22;4207;49.314;7.162;2023-06-22T04:25:25;18.50;99.90
8340;DHT22;4207;49.314;7.162;2023-06-22T04:27:53;18.80;99.90
8340;DHT22;4207;49.314;7.162;2023-06-22T04:30:21;18.70;99.90
8340;DHT22;4207;49.314;7.162;2023-06-22T04:32:49;18.80;99.90
8340;DHT22;4207;49.314;7.162;2023-06-22T04:35:24;19.00;99.90
8340;DHT22;4207;49.314;7.162;2023-06-22T04:37:53;18.90;99.90
8340;DHT22;4207;49.314;7.162;2023-06-22T04:42:51;18.90;99.90
8340;DHT22;4207;49.314;7.162;2023-06-22T04:45:22;19.10;99.90
8340;DHT22;4207;49.314;7.162;2023-06-22T04:47:51;19.10;99.90
8340;DHT22;4207;49.314;7.162;2023-06-22T04:50:19;19.10;99.90
8340;DHT22;4207;49.314;7.162;2023-06-22T04:52:49;19.30;99.90
8340;DHT22;4207;49.314;7.162;2023-06-22T05:05:15;19.50;99.90
8340;DHT22;4207;49.314;7.162;2023-06-22T05:07:45;19.60;99.90
8340;DHT22;4207;49.314;7.162;2023-06-22T05:10:16;19.50;99.90
8340;DHT22;4207;49.314;7.162;2023-06-22T05:27:40;20.00;99.90
8340;DHT22;4207;49.314;7.162;2023-06-22T05:30:12;20.10;99.90
8340;DHT22;4207;49.314;7.162;2023-06-22T05:45:09;20.20;99.90
8340;DHT22;4207;49.314;7.162;2023-06-22T05:47:37;20.20;99.90
8340;DHT22;4207;49.314;7.162;2023-06-22T05:50:06;20.30;99.90
8340;DHT22;4207;49.314;7.162;2023-06-22T05:52:39;20.30;99.90
8340;DHT22;4207;49.314;7.162;2023-06-22T05:55:08;20.30;99.90
8340;DHT22;4207;49.314;7.162;2023-06-22T05:57:36;20.40;99.90
8340;DHT22;4207;49.314;7.162;2023-06-22T06:00:06;20.40;99.90
8340;DHT22;4207;49.314;7.162;2023-06-22T06:02:37;20.40;99.90
8340;DHT22;4207;49.314;7.162;2023-06-22T06:05:11;20.50;99.90
8340;DHT22;4207;49.314;7.162;2023-06-22T06:07:40;20.60;99.90
8340;DHT22;4207;49.314;7.162;2023-06-22T06:10:09;20.80;99.90
8340;DHT22;4207;49.314;7.162;2023-06-22T06:12:37;20.60;99.90
8340;DHT22;4207;49.314;7.162;2023-06-22T06:15:07;20.80;99.90
8340;DHT22;4207;49.314;7.162;2023-06-22T06:17:45;20.90;99.90
8340;DHT22;4207;49.314;7.162;2023-06-22T06:20:14;21.00;99.90
